Αναφορές METAR Αεροδρομίων

 

LGTS - THESSALONIKI - GREECE
Ενημερώθηκε: 13/12/2018 03:50
Αίθριος
Αίθριος
 Ανεμος από ΑΝΑ
Ανεμος: ΑΝΑ 7 km/h
Θερμοκρασία: -1°C
Wind Chill: -4°C
Σημείο Δρόσου: -6°C
Υγρασία: 69%
Βαρόμετρο: 1022 hPa
Περίληψη: Αίθριος
Visibility: greater than 10 km
2018/12/13 01:50 LGTS 130150Z 11004KT CAVOK M01/M06 Q1022 NOSIG
LGLR - LARTISA - GREECE
Ενημερώθηκε: 13/12/2018 03:50
Σχεδόν νεφελώδης
Σχεδόν νεφελώδης
 Ανεμος από calm
Ανεμος: Απνοια
Θερμοκρασία: 0°C
Σημείο Δρόσου: -2°C
Υγρασία: 87%
Βαρόμετρο: 1021 hPa
Clouds: Σχεδόν νεφελώδης
Visibility: 10 km
Cloud details: Σχεδόν νεφελώδης 2438 m
2018/12/13 01:50 LGLR 130150Z 00000KT 9999 BKN080 00/M02 Q1021 BLU
 
LGKZ - KOZANI - GREECE
Ενημερώθηκε: 12/12/2018 13:50
NOT Current
Αίθριος
Αίθριος
 Ανεμος από ΒΔ
Ανεμος: ΒΔ 7 km/h
Θερμοκρασία: 6°C
Wind Chill: 4°C
Σημείο Δρόσου: -10°C
Υγρασία: 31%
Βαρόμετρο: 1018 hPa
Περίληψη: Αίθριος
Visibility: greater than 10 km
2018/12/12 11:50 LGKZ 121150Z 32004KT CAVOK 06/M10 Q1018
LGKV - KAVALA - GREECE
Ενημερώθηκε: 12/12/2018 20:50
NOT Current
Αραιές Νεφώσεις
Αραιές Νεφώσεις
 Ανεμος από Α
Ανεμος: Α 7 km/h
Θερμοκρασία: 3°C
Wind Chill: 1°C
Σημείο Δρόσου: -4°C
Υγρασία: 60%
Βαρόμετρο: 1020 hPa
Clouds: Αραιές Νεφώσεις
Visibility: 10 km
Cloud details: Αραιές Νεφώσεις 762 m
2018/12/12 18:50 LGKV 121850Z 08004KT 9999 FEW025 03/M04 Q1020
 
LGIO - IOANNINA - GREECE
Ενημερώθηκε: 12/12/2018 21:20
NOT Current
Αραιές Νεφώσεις
Αραιές Νεφώσεις
 Ανεμος από varies
Ανεμος: varies 0 km/h
Θερμοκρασία: 1°C
Σημείο Δρόσου: -2°C
Υγρασία: 81%
Βαρόμετρο: 1019 hPa
Clouds: Αραιές Νεφώσεις
Visibility: 10 km
Cloud details: Αραιές Νεφώσεις 914 m
2018/12/12 19:20 LGIO 121920Z /////KT 9999 FEW030 01/M02 Q1019
LGBL - BOLOS - GREECE
Ενημερώθηκε: 13/12/2018 03:50
Σχεδόν νεφελώδης
Σχεδόν νεφελώδης
 Ανεμος από Δ
Ανεμος: Δ 6 km/h
Θερμοκρασία: 3°C
Σημείο Δρόσου: -1°C
Υγρασία: 75%
Βαρόμετρο: 1021 hPa
Clouds: Σχεδόν νεφελώδης
Visibility: 10 km
Cloud details: Αραιές Νεφώσεις 914 m
Σχεδόν νεφελώδης 2438 m
2018/12/13 01:50 LGBL 130150Z 27003KT 9999 FEW030 BKN080 03/M01 Q1021
 
LGMT - MITILINI - GREECE
Ενημερώθηκε: 12/12/2018 21:50
NOT Current
Αίθριος
Αίθριος
 Ανεμος από varies
Ανεμος: varies 6 km/h
Θερμοκρασία: 5°C
Σημείο Δρόσου: -1°C
Υγρασία: 66%
Βαρόμετρο: 1021 hPa
Περίληψη: Αίθριος
Visibility: greater than 10 km
2018/12/12 19:50 LGMT 121950Z VRB03KT CAVOK 05/M01 Q1021
LGAV - ATHENS - GREECE
Ενημερώθηκε: 13/12/2018 04:20
Μερικώς νεφελώδης
Μερικώς νεφελώδης
 Ανεμος από ΝΔ
Ανεμος: ΝΔ 4 km/h
Θερμοκρασία: 3°C
Σημείο Δρόσου: 2°C
Υγρασία: 93%
Βαρόμετρο: 1021 hPa
Clouds: Μερικώς νεφελώδης
Visibility: 10 km
Cloud details: Μερικώς νεφελώδης 1219 m
2018/12/13 02:20 LGAV 130220Z 22002KT 9999 SCT040 03/02 Q1021 NOSIG
 
LGRP - RODOS - GREECE
Ενημερώθηκε: 13/12/2018 04:20
Αραιές Νεφώσεις
Αραιές Νεφώσεις
 Ανεμος από ΒΔ
Ανεμος: ΒΔ 11 km/h
Θερμοκρασία: 11°C
Σημείο Δρόσου: 3°C
Υγρασία: 58%
Βαρόμετρο: 1022 hPa
Clouds: Αραιές Νεφώσεις
Visibility: 10 km
Cloud details: Αραιές Νεφώσεις 610 m
2018/12/13 02:20 LGRP 130220Z 32006KT 280V350 9999 FEW020 11/03 Q1022 NOSIG
LGIR - HRAKLIO/KRITI - GREECE
Ενημερώθηκε: 13/12/2018 04:20
Μερικώς νεφελώδης
Μερικώς νεφελώδης
 Ανεμος από Ν
Ανεμος: Ν 13 km/h
Θερμοκρασία: 7°C
Wind Chill: 5°C
Σημείο Δρόσου: 4°C
Υγρασία: 81%
Βαρόμετρο: 1021 hPa
Clouds: Μερικώς νεφελώδης
Visibility: 10 km
Cloud details: Μερικώς νεφελώδης 610 m
2018/12/13 02:20 LGIR 130220Z 17007KT 9999 SCT020 07/04 Q1021 NOSIG
 
LGMK - MIKONOS - GREECE
Ενημερώθηκε: 12/12/2018 19:50
NOT Current
Αραιές Νεφώσεις
Αραιές Νεφώσεις
 Ανεμος από calm
Ανεμος: Απνοια
Θερμοκρασία: 7°C
Σημείο Δρόσου: -1°C
Υγρασία: 57%
Βαρόμετρο: 1021 hPa
Clouds: Αραιές Νεφώσεις
Visibility: 10 km
Cloud details: Αραιές Νεφώσεις 549 m
2018/12/12 17:50 LGMK 121750Z 00000KT 9999 FEW018 07/M01 Q1021
LGKR - KERKIRA - GREECE
Ενημερώθηκε: 13/12/2018 04:20
Ασθενής βροχή, Σχεδόν νεφελώδης
Ασθενής βροχή, Σχεδόν νεφελώδης
 Ανεμος από ΝΑ
Ανεμος: ΝΑ 11 km/h
Θερμοκρασία: 9°C
Wind Chill: 7°C
Σημείο Δρόσου: 6°C
Υγρασία: 82%
Βαρόμετρο: 1019 hPa
Περίληψη: Ασθενής βροχή
Clouds: Σχεδόν νεφελώδης
Visibility: 10 km
Cloud details: Αραιές Νεφώσεις 549 m
Σχεδόν νεφελώδης 762 m
Σχεδόν νεφελώδης 2134 m
2018/12/13 02:20 LGKR 130220Z 13006KT 9999 -RA FEW018 BKN025 BKN070 09/06 Q1019 TEMPO RA